Time;durP1;ratioP1;P1;durP2;ratioP2;P2;SDS_P1;SDS_P2;PMS_P1;PMS_P2;Temp;Humidity;BMP_temperature;BMP_pressure;BME280_temperature;BME280_humidity;BME280_pressure;Samples;Min_cycle;Max_cycle;Signal;HPM_P1;HPM_P2
2022/02/10 00:04:31;;;;;;;1999.90;999.90;;;;;;;11.53;65.41;101709.63;15672314;28;20049;-59
2022/02/10 00:20:19;;;;;;;1999.90;999.90;;;;;;;11.34;65.74;101711.75;15654508;28;20060;-60
2022/02/10 00:35:54;;;;;;;1999.90;999.90;;;;;;;11.52;65.48;101713.56;15532316;28;20636;-63
2022/02/10 00:43:27;;;;;;;1999.90;999.90;;;;;;;11.67;64.85;101706.81;15646256;28;20046;-64
2022/02/10 00:50:59;;;;;;;1999.90;999.90;;;;;;;11.71;64.74;101698.59;15572887;28;20049;-63
2022/02/10 00:58:35;;;;;;;1999.90;999.90;;;;;;;11.71;64.75;101699.41;15584288;28;20041;-62
2022/02/10 01:14:04;;;;;;;1999.90;999.90;;;;;;;11.69;64.85;101701.72;15559490;28;20038;-63
2022/02/10 01:29:37;;;;;;;1999.90;999.90;;;;;;;11.36;65.39;101691.88;15624018;28;20438;-62
2022/02/10 01:37:10;;;;;;;1999.90;999.90;;;;;;;11.50;65.19;101689.88;15596602;28;20050;-62
2022/02/10 02:08:15;;;;;;;1999.90;999.90;;;;;;;11.44;64.84;101643.59;15565701;28;20565;-64
2022/02/10 02:15:50;;;;;;;1999.90;999.90;;;;;;;11.26;65.26;101645.44;15593514;28;20108;-64
2022/02/10 02:23:25;;;;;;;1999.90;999.90;;;;;;;11.47;64.59;101632.66;15596902;28;20533;-62
2022/02/10 02:31:01;;;;;;;1999.90;999.90;;;;;;;11.54;64.36;101646.16;15599768;28;20079;-63
2022/02/10 02:38:54;;;;;;;1999.90;999.90;;;;;;;11.41;64.85;101639.50;15643872;28;20498;-63
2022/02/10 03:10:16;;;;;;;1999.90;999.90;;;;;;;11.47;64.36;101590.72;15583083;28;20108;-65
2022/02/10 03:18:15;;;;;;;1999.90;999.90;;;;;;;11.33;64.81;101587.16;15559398;28;20045;-65
2022/02/10 04:05:19;;;;;;;1999.90;999.90;;;;;;;11.09;65.23;101519.59;15601564;28;20046;-65
2022/02/10 04:13:17;;;;;;;1999.90;999.90;;;;;;;10.97;65.51;101503.41;15580807;28;20052;-62
2022/02/10 04:21:02;;;;;;;1999.90;999.90;;;;;;;11.12;65.09;101502.19;15623926;28;20566;-62
2022/02/10 04:28:52;;;;;;;1999.90;999.90;;;;;;;11.09;65.04;101503.66;15558776;28;20073;-63
2022/02/10 04:44:48;;;;;;;1999.90;999.90;;;;;;;11.22;64.94;101477.63;15576974;28;20073;-63
2022/02/10 05:00:24;;;;;;;1999.90;999.90;;;;;;;11.03;65.51;101465.81;15570484;28;19925;-61
2022/02/10 05:08:31;;;;;;;1999.90;999.90;;;;;;;10.91;65.00;101458.00;15625263;28;20045;-63
2022/02/10 05:16:36;;;;;;;1999.90;999.90;;;;;;;11.19;64.52;101450.31;15626710;28;20087;-63
2022/02/10 05:24:26;;;;;;;1999.90;999.90;;;;;;;11.07;64.73;101444.50;15550809;28;20407;-63
2022/02/10 05:32:21;;;;;;;1999.90;999.90;;;;;;;10.95;64.54;101435.88;15651685;28;20048;-64
2022/02/10 05:39:56;;;;;;;1999.90;999.90;;;;;;;11.04;64.56;101427.53;15626141;28;20096;-64
2022/02/10 05:47:59;;;;;;;1999.90;999.90;;;;;;;10.64;65.80;101431.06;15570046;28;20040;-63
2022/02/10 05:55:44;;;;;;;1999.90;999.90;;;;;;;10.62;65.50;101418.53;15599623;28;20061;-64
2022/02/10 06:50:50;;;;;;;1999.90;999.90;;;;;;;10.67;65.75;101382.97;15660211;28;20044;-61
2022/02/10 07:06:27;;;;;;;1999.90;999.90;;;;;;;10.69;65.62;101354.72;15604830;28;20049;-56
2022/02/10 08:56:37;;;;;;;1999.90;999.90;;;;;;;12.07;63.51;101262.97;15541686;28;20132;-60
2022/02/10 09:04:19;;;;;;;1999.90;999.90;;;;;;;12.88;61.85;101266.91;15577553;28;20049;-58
2022/02/10 09:59:26;;;;;;;1999.90;999.90;;;;;;;12.87;61.77;101214.84;15646420;28;20053;-59
2022/02/10 10:07:15;;;;;;;1999.90;999.90;;;;;;;12.87;60.74;101209.25;15637893;28;20468;-61
2022/02/10 10:15:13;;;;;;;1999.90;999.90;;;;;;;13.17;60.46;101204.47;15644926;28;20383;-59
2022/02/10 10:54:40;;;;;;;1999.90;999.90;;;;;;;13.97;58.14;101153.91;15674846;28;20277;-60
2022/02/10 11:43:03;;;;;;;1999.90;999.90;;;;;;;13.22;59.51;101125.84;15627607;28;20049;-58
2022/02/10 14:14:43;;;;;;;1999.90;999.90;;;;;;;8.81;74.78;101197.41;15606721;28;20125;-64
2022/02/10 14:22:36;;;;;;;1999.90;999.90;;;;;;;8.58;75.82;101197.28;15624429;28;20551;-64
2022/02/10 14:30:10;;;;;;;;;;;;;;;9.04;75.04;101207.47;15591230;28;20072;-64
2022/02/10 14:38:06;;;;;;;1999.90;999.90;;;;;;;9.16;74.67;101209.72;15623761;28;19921;-62
2022/02/10 15:49:45;;;;;;;1999.90;999.90;;;;;;;9.53;72.72;101265.16;15607613;28;20395;-64
2022/02/10 16:14:03;;;;;;;1999.90;999.90;;;;;;;8.94;74.43;101299.53;15600474;28;20111;-64
2022/02/10 16:21:06;;;;;;;1999.90;999.90;;;;;;;8.80;75.70;101315.41;15599528;28;20040;-65
2022/02/10 16:28:40;;;;;;;1999.90;999.90;;;;;;;8.91;75.21;101316.88;15582646;28;20042;-65
2022/02/10 16:36:16;;;;;;;1999.90;999.90;;;;;;;9.06;75.48;101310.16;15616639;28;20383;-63
2022/02/10 16:43:48;;;;;;;1999.90;999.90;;;;;;;8.96;75.61;101311.19;15616615;28;20049;-63
2022/02/10 16:51:24;;;;;;;1999.90;999.90;;;;;;;8.76;75.48;101323.56;15599128;28;20402;-62
2022/02/10 16:59:06;;;;;;;1999.90;999.90;;;;;;;8.60;75.73;101320.22;15582901;28;20087;-62
2022/02/10 17:46:38;;;;;;;1999.90;999.90;;;;;;;8.68;75.97;101365.97;15610627;28;20133;-62
2022/02/10 17:54:14;;;;;;;1999.90;999.90;;;;;;;8.66;76.33;101371.84;15608937;28;20041;-64
2022/02/10 18:01:48;;;;;;;;;;;;;;;8.80;75.85;101383.03;15601678;28;20049;-62
2022/02/10 18:09:59;;;;;;;1999.90;999.90;;;;;;;8.58;76.93;101380.88;15572826;28;19991;-61
2022/02/10 18:17:38;;;;;;;1999.90;999.90;;;;;;;8.74;76.69;101386.19;15545956;28;20096;-61
2022/02/10 18:25:41;;;;;;;1999.90;999.90;;;;;;;8.74;76.83;101402.88;15545031;28;20049;-61
2022/02/10 18:33:30;;;;;;;1999.90;999.90;;;;;;;8.72;76.73;101396.78;15562326;28;20076;-62
2022/02/10 19:12:28;;;;;;;1999.90;999.90;;;;;;;8.85;74.83;101405.19;15620698;28;20094;-62
2022/02/10 19:20:01;;;;;;;1999.90;999.90;;;;;;;8.73;75.55;101396.50;15574918;28;20422;-63
2022/02/10 19:27:35;;;;;;;1999.90;999.90;;;;;;;8.79;75.84;101400.84;15595257;28;20407;-64
2022/02/10 19:35:11;;;;;;;1999.90;999.90;;;;;;;8.84;75.69;101397.13;15593723;28;20034;-62
2022/02/10 19:42:47;;;;;;;1999.90;999.90;;;;;;;8.68;76.15;101400.19;15605944;28;20059;-62
2022/02/10 19:50:26;;;;;;;1999.90;999.90;;;;;;;8.52;75.78;101393.22;15587347;28;20042;-63
2022/02/10 19:58:04;;;;;;;1999.90;999.90;;;;;;;8.28;77.04;101390.50;15607600;28;20079;-61
2022/02/10 20:05:37;;;;;;;1999.90;999.90;;;;;;;8.54;76.41;101399.28;15626502;28;20045;-60
2022/02/10 20:13:16;;;;;;;1999.90;999.90;;;;;;;8.27;77.08;101376.91;15613474;28;20057;-60
2022/02/10 20:20:53;;;;;;;1999.90;999.90;;;;;;;8.35;76.93;101382.66;15584378;28;20041;-62
2022/02/10 20:28:28;;;;;;;1999.90;999.90;;;;;;;8.07;77.98;101381.66;15582503;28;20041;-60
2022/02/10 20:36:06;;;;;;;1999.90;999.90;;;;;;;8.01;78.24;101399.50;15580868;28;20045;-61
2022/02/10 20:43:40;;;;;;;1999.90;999.90;;;;;;;8.38;76.83;101393.16;15559252;28;20443;-63
2022/02/10 20:51:15;;;;;;;1999.90;999.90;;;;;;;8.41;76.92;101394.50;15596317;28;20052;-60
2022/02/10 20:58:55;;;;;;;1999.90;999.90;;;;;;;8.40;76.71;101390.09;15558537;28;20049;-61
2022/02/10 21:06:48;;;;;;;1999.90;999.90;;;;;;;8.06;77.46;101393.91;15590382;28;20529;-59
2022/02/10 21:14:25;;;;;;;1999.90;999.90;;;;;;;8.09;77.51;101386.91;15579742;28;20046;-64
2022/02/10 21:21:57;;;;;;;1999.90;999.90;;;;;;;8.12;77.35;101383.50;15609837;28;20054;-64
2022/02/10 21:29:36;;;;;;;1999.90;999.90;;;;;;;8.16;77.19;101392.94;15569563;28;20124;-63
2022/02/10 21:37:11;;;;;;;1999.90;999.90;;;;;;;8.45;75.94;101389.19;15543527;28;20136;-63
2022/02/10 21:53:53;;;;;;;1999.90;999.90;;;;;;;8.17;76.41;101402.91;15550943;28;20057;-64
2022/02/10 22:17:22;;;;;;;1999.90;999.90;;;;;;;8.36;75.61;101403.78;15719713;27;20357;-62
2022/02/10 22:24:58;;;;;;;1999.90;999.90;;;;;;;8.00;76.34;101406.19;15656057;28;20052;-62
2022/02/10 22:32:45;;;;;;;1999.90;999.90;;;;;;;8.04;75.94;101428.69;15661472;28;20037;-62
2022/02/10 22:40:38;;;;;;;1999.90;999.90;;;;;;;6.82;75.52;101466.91;15658394;28;20056;-61
2022/02/10 22:48:11;;;;;;;;;;;;;;;6.76;76.56;101456.13;15658772;28;20048;-61
2022/02/10 22:55:44;;;;;;;1999.90;999.90;;;;;;;6.54;76.21;101446.31;15663399;28;19952;-59
2022/02/10 23:03:20;;;;;;;1999.90;999.90;;;;;;;6.30;76.01;101440.66;15665864;28;20041;-60
2022/02/10 23:10:53;;;;;;;1999.90;999.90;;;;;;;6.64;75.08;101412.97;15660158;28;20537;-61
2022/02/10 23:18:35;;;;;;;1999.90;999.90;;;;;;;6.97;74.27;101420.72;15625743;28;20048;-61
2022/02/10 23:26:10;;;;;;;1999.90;999.90;;;;;;;7.02;73.67;101417.91;15625914;28;20056;-62
2022/02/10 23:33:50;;;;;;;1999.90;999.90;;;;;;;7.02;73.77;101415.16;15616178;28;20071;-61
2022/02/10 23:41:54;;;;;;;1999.90;999.90;;;;;;;7.15;73.81;101420.00;15623850;28;20052;-61
2022/02/10 23:49:30;;;;;;;1999.90;999.90;;;;;;;7.16;73.53;101416.94;15623200;28;20453;-60
2022/02/10 23:57:07;;;;;;;1999.90;999.90;;;;;;;7.11;74.05;101414.22;15621439;28;20034;-60
